Аэропорт: Шымкент. Шымкент

ICAO: UAII

METAR:
2019/05/26 14:00
UAII 261400Z 05002MPS CAVOK 26/08 Q1019 R10/0///70 NOSIG RMK QFE729/0972
METAR:
2019/05/26 12:18
TAF UAII 261100Z 2612/2712 33006MPS CAVOK TX30/2709Z TN12/2701Z 
      TEMPO 2612/2615 06006MPS 
      TEMPO 2615/2703 10005MPS 
      TEMPO 2706/2712 06003G08MPS